Time;durP1;ratioP1;P1;durP2;ratioP2;P2;SDS_P1;SDS_P2;PMS_P1;PMS_P2;Temp;Humidity;BMP_temperature;BMP_pressure;BME280_temperature;BME280_humidity;BME280_pressure;Samples;Min_cycle;Max_cycle;Signal;HPM_P1;HPM_P2
2023/02/27 00:02:12;;;;;;;1.10;0.90;;;20.80;55.30;;;;;;4955839;29;20540;-84
2023/02/27 00:04:38;;;;;;;1.10;1.00;;;20.70;55.20;;;;;;4955492;29;20450;-85
2023/02/27 00:07:07;;;;;;;1.20;1.00;;;20.70;55.30;;;;;;4955480;29;20453;-84
2023/02/27 00:09:34;;;;;;;1.30;1.00;;;20.70;55.30;;;;;;4955558;29;20536;-84
2023/02/27 00:12:01;;;;;;;2.03;0.90;;;20.70;55.30;;;;;;4955501;28;20472;-84
2023/02/27 00:14:28;;;;;;;1.00;0.80;;;20.70;55.30;;;;;;4955415;29;20921;-84
2023/02/27 00:16:55;;;;;;;1.10;0.97;;;20.70;55.30;;;;;;4955687;29;20781;-84
2023/02/27 00:19:22;;;;;;;2.17;1.10;;;20.70;55.30;;;;;;4955238;29;20842;-84
2023/02/27 00:21:49;;;;;;;1.50;1.30;;;20.70;55.30;;;;;;4955629;29;20447;-84
2023/02/27 00:24:17;;;;;;;1.33;1.00;;;20.80;55.40;;;;;;4955458;29;20450;-85
2023/02/27 00:26:44;;;;;;;1.10;0.97;;;20.70;55.30;;;;;;4955610;29;20446;-84
2023/02/27 00:29:11;;;;;;;1.10;1.00;;;20.70;55.30;;;;;;4955460;29;20453;-89
2023/02/27 00:31:37;;;;;;;1.50;1.20;;;20.60;55.30;;;;;;4955343;29;20446;-85
2023/02/27 00:34:04;;;;;;;1.10;0.90;;;20.60;55.20;;;;;;4954634;28;20446;-88
2023/02/27 00:36:31;;;;;;;1.10;0.87;;;20.80;55.30;;;;;;4955110;29;20454;-88
2023/02/27 00:38:58;;;;;;;1.10;0.90;;;20.70;55.30;;;;;;4955287;29;20497;-84
2023/02/27 00:41:26;;;;;;;1.23;1.00;;;20.60;55.30;;;;;;4955229;28;20450;-85
2023/02/27 00:43:53;;;;;;;1.00;0.70;;;20.60;55.80;;;;;;4955355;29;20472;-84
2023/02/27 00:46:19;;;;;;;1.10;1.00;;;20.60;55.30;;;;;;4955328;29;20810;-84
2023/02/27 00:48:46;;;;;;;1.13;0.90;;;20.60;55.30;;;;;;4955063;29;20813;-85
2023/02/27 00:51:13;;;;;;;1.20;1.03;;;20.60;55.20;;;;;;4955128;29;20816;-84
2023/02/27 00:53:40;;;;;;;1.10;1.00;;;20.60;55.30;;;;;;4955197;29;20446;-84
2023/02/27 00:56:07;;;;;;;1.20;0.90;;;20.60;55.30;;;;;;4955167;29;20450;-85
2023/02/27 00:58:35;;;;;;;1.00;0.80;;;20.60;55.30;;;;;;4955146;29;20442;-85
2023/02/27 01:01:02;;;;;;;1.20;0.90;;;20.60;55.30;;;;;;4955027;28;20453;-89
2023/02/27 01:03:29;;;;;;;1.10;0.80;;;20.60;55.30;;;;;;4955339;29;20442;-87
2023/02/27 01:05:56;;;;;;;1.60;1.00;;;20.60;55.30;;;;;;4955207;29;20465;-84
2023/02/27 01:08:23;;;;;;;1.50;1.13;;;20.60;55.30;;;;;;4954969;29;20442;-86
2023/02/27 01:10:49;;;;;;;1.30;1.00;;;20.60;55.30;;;;;;4954975;29;20445;-84
2023/02/27 01:13:16;;;;;;;1.47;1.00;;;20.50;55.30;;;;;;4954917;29;20462;-84
2023/02/27 01:15:44;;;;;;;1.20;1.03;;;20.50;55.20;;;;;;4955216;29;20461;-84
2023/02/27 01:18:11;;;;;;;1.53;1.00;;;20.50;55.30;;;;;;4955008;29;20451;-86
2023/02/27 01:20:38;;;;;;;1.10;0.80;;;20.50;55.20;;;;;;4954670;29;20489;-87
2023/02/27 01:23:05;;;;;;;1.20;0.90;;;20.50;55.30;;;;;;4955021;29;20449;-84
2023/02/27 01:25:31;;;;;;;1.00;0.80;;;20.50;55.30;;;;;;4954710;29;20454;-84
2023/02/27 01:27:59;;;;;;;1.10;0.87;;;20.50;55.20;;;;;;4954752;29;20456;-85
2023/02/27 01:30:26;;;;;;;1.10;0.80;;;20.50;55.30;;;;;;4954873;29;20446;-84
2023/02/27 01:32:54;;;;;;;1.20;1.00;;;20.50;55.30;;;;;;4954805;29;20450;-84
2023/02/27 01:35:21;;;;;;;1.20;1.07;;;20.50;55.20;;;;;;4954877;29;20450;-84
2023/02/27 01:37:48;;;;;;;1.20;1.00;;;20.50;55.20;;;;;;4954947;29;20449;-85
2023/02/27 01:40:14;;;;;;;1.00;0.80;;;20.50;55.20;;;;;;4954819;29;20489;-84
2023/02/27 01:42:41;;;;;;;1.30;0.80;;;20.50;55.20;;;;;;4954662;29;20465;-88
2023/02/27 01:45:28;;;;;;;1.20;1.00;;;20.50;55.20;;;;;;4956695;28;20444;-85
2023/02/27 01:48:02;;;;;;;1.10;0.90;;;20.50;55.20;;;;;;4958069;29;20461;-84
2023/02/27 01:50:30;;;;;;;1.20;0.90;;;20.50;55.30;;;;;;4957797;29;20489;-84
2023/02/27 01:53:00;;;;;;;1.30;0.83;;;20.40;55.20;;;;;;4957997;29;20442;-85
2023/02/27 01:55:29;;;;;;;1.20;0.80;;;20.40;55.20;;;;;;4958152;29;20450;-84
2023/02/27 01:57:57;;;;;;;1.30;1.13;;;20.40;55.20;;;;;;4958101;29;20456;-86
2023/02/27 02:00:25;;;;;;;1.00;0.87;;;20.40;55.20;;;;;;4958057;29;20494;-84
2023/02/27 02:03:00;;;;;;;1.20;0.87;;;20.40;55.20;;;;;;4957959;29;20874;-85
2023/02/27 02:05:29;;;;;;;2.47;0.90;;;20.40;55.20;;;;;;4957804;29;20446;-84
2023/02/27 02:07:57;;;;;;;1.30;1.00;;;20.40;55.20;;;;;;4957640;29;20450;-84
2023/02/27 02:10:25;;;;;;;1.10;1.00;;;20.40;55.20;;;;;;4957714;29;20938;-84
2023/02/27 02:12:52;;;;;;;1.00;0.80;;;20.40;55.70;;;;;;4957683;29;20466;-84
2023/02/27 02:15:23;;;;;;;1.10;0.80;;;20.40;55.10;;;;;;4957692;29;20515;-84
2023/02/27 02:17:59;;;;;;;1.20;1.00;;;20.40;55.20;;;;;;4957720;29;20806;-84
2023/02/27 02:21:12;;;;;;;1.30;1.07;;;20.40;55.10;;;;;;4957613;29;20570;-83
2023/02/27 02:24:27;;;;;;;1.10;0.90;;;20.40;55.10;;;;;;4957651;29;20441;-84
2023/02/27 02:27:00;;;;;;;1.40;1.10;;;20.50;55.30;;;;;;4898452;29;20445;-87
2023/02/27 02:29:54;;;;;;;1.20;1.00;;;20.40;55.20;;;;;;4898252;29;20455;-87
2023/02/27 02:32:49;;;;;;;1.07;0.90;;;20.40;55.20;;;;;;4944264;29;20438;-84
2023/02/27 02:35:43;;;;;;;1.20;0.97;;;20.40;55.20;;;;;;4957484;29;20946;-84
2023/02/27 02:38:42;;;;;;;1.00;0.80;;;20.30;55.10;;;;;;4956957;29;20454;-83
2023/02/27 02:41:14;;;;;;;1.43;1.30;;;20.30;55.10;;;;;;4945589;29;20492;-84
2023/02/27 02:43:51;;;;;;;1.20;0.90;;;20.30;55.10;;;;;;4957056;29;20449;-84
2023/02/27 02:46:26;;;;;;;1.00;0.80;;;20.30;55.10;;;;;;4957143;29;20447;-84
2023/02/27 02:49:00;;;;;;;1.10;0.80;;;20.30;55.10;;;;;;4957055;29;20441;-84
2023/02/27 02:51:34;;;;;;;1.27;0.80;;;20.30;55.20;;;;;;4956967;29;21000;-84
2023/02/27 02:54:06;;;;;;;1.37;1.10;;;20.30;55.20;;;;;;4957116;29;20442;-84
2023/02/27 02:56:36;;;;;;;2.27;1.13;;;20.30;55.10;;;;;;4956172;28;20437;-84
2023/02/27 02:59:10;;;;;;;1.20;1.03;;;20.30;55.20;;;;;;4956811;29;20438;-84
2023/02/27 03:01:42;;;;;;;1.17;1.07;;;20.30;55.20;;;;;;4957200;29;20789;-84
2023/02/27 03:04:13;;;;;;;1.20;0.90;;;20.30;55.10;;;;;;4956850;29;20449;-84
2023/02/27 03:06:44;;;;;;;1.30;1.00;;;20.30;55.20;;;;;;4956598;29;20446;-84
2023/02/27 03:09:17;;;;;;;1.00;0.90;;;20.30;55.10;;;;;;4956729;29;20454;-84
2023/02/27 03:11:47;;;;;;;1.00;0.77;;;20.30;55.10;;;;;;4956710;28;20524;-84
2023/02/27 03:14:18;;;;;;;1.20;0.90;;;20.30;55.20;;;;;;4956480;29;20449;-88
2023/02/27 03:16:49;;;;;;;1.17;0.87;;;20.20;55.10;;;;;;4956929;29;20933;-90
2023/02/27 03:19:21;;;;;;;1.23;0.90;;;20.20;55.10;;;;;;4956387;29;20441;-84
2023/02/27 03:21:51;;;;;;;1.10;0.80;;;20.20;55.10;;;;;;4956684;29;20449;-84
2023/02/27 03:24:24;;;;;;;1.20;1.00;;;20.20;55.20;;;;;;4956728;29;20445;-86
2023/02/27 03:26:53;;;;;;;1.20;1.00;;;20.20;55.10;;;;;;4956446;29;20453;-83
2023/02/27 03:29:26;;;;;;;1.13;0.90;;;20.20;55.10;;;;;;4956164;29;20449;-90
2023/02/27 03:31:58;;;;;;;1.07;0.80;;;20.20;55.10;;;;;;4956469;29;20441;-84
2023/02/27 03:34:29;;;;;;;1.10;0.90;;;20.20;55.20;;;;;;4956307;29;20439;-84
2023/02/27 03:37:02;;;;;;;1.80;1.00;;;20.30;55.20;;;;;;4956339;29;20951;-86
2023/02/27 03:39:44;;;;;;;1.03;0.90;;;20.20;55.20;;;;;;4956172;29;21014;-84
2023/02/27 03:42:18;;;;;;;1.20;0.90;;;20.20;55.20;;;;;;4956515;29;20462;-84
2023/02/27 03:44:55;;;;;;;1.00;0.70;;;20.20;55.20;;;;;;4956202;29;20442;-84
2023/02/27 03:47:22;;;;;;;1.37;1.10;;;20.20;55.20;;;;;;4956146;29;20453;-84
2023/02/27 03:49:50;;;;;;;1.17;1.00;;;20.20;55.10;;;;;;4955700;29;20481;-84
2023/02/27 03:52:18;;;;;;;1.07;0.87;;;20.10;55.10;;;;;;4956393;29;20501;-90
2023/02/27 03:54:53;;;;;;;1.00;0.80;;;20.10;55.10;;;;;;4956119;29;20442;-84
2023/02/27 03:57:20;;;;;;;1.20;0.90;;;20.30;55.30;;;;;;4955965;29;20441;-84
2023/02/27 03:59:47;;;;;;;1.10;0.90;;;20.30;55.20;;;;;;4955877;29;20845;-84
2023/02/27 04:02:15;;;;;;;1.30;1.00;;;20.10;55.10;;;;;;4956095;29;20484;-84
2023/02/27 04:04:42;;;;;;;1.40;1.00;;;20.20;55.20;;;;;;4956022;29;20945;-84
2023/02/27 04:07:24;;;;;;;1.10;1.00;;;20.10;55.10;;;;;;4955386;28;20450;-84
2023/02/27 04:10:13;;;;;;;1.17;0.97;;;20.10;55.10;;;;;;4955609;29;20453;-84
2023/02/27 04:13:11;;;;;;;1.23;0.90;;;20.10;55.10;;;;;;4955488;29;20466;-84
2023/02/27 04:15:59;;;;;;;1.37;0.93;;;20.10;55.10;;;;;;4955994;29;20446;-84
2023/02/27 04:18:37;;;;;;;1.00;0.80;;;20.10;55.10;;;;;;4955923;29;20473;-84
2023/02/27 04:21:09;;;;;;;1.20;0.80;;;20.10;55.10;;;;;;4955471;29;20499;-84
2023/02/27 04:23:41;;;;;;;1.10;0.80;;;20.10;55.10;;;;;;4955508;29;20449;-84
2023/02/27 04:26:20;;;;;;;1.17;0.97;;;20.10;55.10;;;;;;4955612;29;20450;-84
2023/02/27 04:28:55;;;;;;;1.00;0.80;;;20.10;55.10;;;;;;4955539;29;20441;-84
2023/02/27 04:31:28;;;;;;;1.10;0.90;;;20.10;55.70;;;;;;4955624;29;20465;-84
2023/02/27 04:34:00;;;;;;;1.43;0.83;;;20.10;55.10;;;;;;4955570;29;20447;-87
2023/02/27 04:36:32;;;;;;;1.20;1.10;;;20.10;55.10;;;;;;4955228;29;20442;-83
2023/02/27 04:39:04;;;;;;;1.10;0.80;;;20.10;55.10;;;;;;4955449;29;20450;-84
2023/02/27 04:41:38;;;;;;;1.00;0.70;;;20.20;55.20;;;;;;4955264;29;20642;-84
2023/02/27 04:44:08;;;;;;;1.10;1.00;;;20.00;55.10;;;;;;4955515;29;20454;-83
2023/02/27 04:46:37;;;;;;;1.10;0.90;;;20.00;55.10;;;;;;4955289;29;20457;-84
2023/02/27 04:49:10;;;;;;;1.20;0.90;;;20.10;55.10;;;;;;4954806;28;20437;-84
2023/02/27 04:51:44;;;;;;;1.10;0.80;;;20.00;55.10;;;;;;4955366;29;20452;-91
2023/02/27 04:54:14;;;;;;;1.20;1.10;;;20.10;55.20;;;;;;4955267;29;20445;-84
2023/02/27 04:56:46;;;;;;;1.23;0.90;;;20.00;55.10;;;;;;4955307;29;20453;-84
2023/02/27 04:59:17;;;;;;;1.10;1.00;;;20.00;55.10;;;;;;4955146;29;20457;-84
2023/02/27 05:01:47;;;;;;;1.10;0.90;;;20.00;55.10;;;;;;4954846;29;20493;-84
2023/02/27 05:04:18;;;;;;;1.70;0.90;;;20.00;55.10;;;;;;4955019;29;20460;-84
2023/02/27 05:06:48;;;;;;;1.30;0.90;;;20.10;55.10;;;;;;4955226;29;20453;-84
2023/02/27 05:09:22;;;;;;;1.07;0.80;;;20.00;55.00;;;;;;4955040;29;20445;-91
2023/02/27 05:11:56;;;;;;;1.10;0.90;;;20.00;55.00;;;;;;4955435;29;20480;-90
2023/02/27 05:14:30;;;;;;;1.00;0.70;;;20.00;55.00;;;;;;4955057;29;20438;-90
2023/02/27 05:17:02;;;;;;;1.10;0.90;;;20.00;55.00;;;;;;4955217;29;20940;-88
2023/02/27 05:19:30;;;;;;;1.20;1.00;;;19.90;54.90;;;;;;4956045;28;20438;-93
2023/02/27 05:22:05;;;;;;;1.00;0.80;;;19.90;54.90;;;;;;4958798;29;20485;-85
2023/02/27 05:24:38;;;;;;;1.00;0.73;;;19.90;55.00;;;;;;4959179;29;20445;-92
2023/02/27 05:27:18;;;;;;;1.93;1.00;;;19.90;55.00;;;;;;4958761;29;20444;-92
2023/02/27 05:29:49;;;;;;;1.10;0.80;;;19.90;54.90;;;;;;4958575;29;20437;-92
2023/02/27 05:32:26;;;;;;;1.07;0.93;;;19.90;55.00;;;;;;4958896;29;20480;-92
2023/02/27 05:34:58;;;;;;;1.30;1.00;;;19.90;55.00;;;;;;4958393;29;20507;-88
2023/02/27 05:37:30;;;;;;;1.10;0.77;;;20.00;55.60;;;;;;4958637;29;20448;-92
2023/02/27 05:40:00;;;;;;;1.00;0.80;;;19.90;54.90;;;;;;4958505;29;20445;-89
2023/02/27 05:42:33;;;;;;;1.10;0.87;;;19.90;55.00;;;;;;4958364;29;20468;-84
2023/02/27 05:45:07;;;;;;;1.10;0.90;;;19.90;55.00;;;;;;4958335;29;20445;-90
2023/02/27 05:47:39;;;;;;;1.30;0.90;;;19.90;54.90;;;;;;4958375;29;20484;-92
2023/02/27 05:50:09;;;;;;;1.00;0.80;;;19.90;55.00;;;;;;4958414;29;20482;-92
2023/02/27 05:52:38;;;;;;;1.10;0.90;;;19.90;55.00;;;;;;4958256;29;20993;-87
2023/02/27 05:55:10;;;;;;;1.20;0.90;;;19.90;55.00;;;;;;4958307;29;20826;-93
2023/02/27 05:57:43;;;;;;;1.10;0.90;;;19.90;54.90;;;;;;4958398;29;20440;-93
2023/02/27 06:00:15;;;;;;;1.30;1.10;;;19.90;55.00;;;;;;4958003;29;20437;-93
2023/02/27 06:02:44;;;;;;;1.10;0.90;;;19.90;55.00;;;;;;4958268;29;20434;-89
2023/02/27 06:05:13;;;;;;;1.17;0.90;;;19.90;55.00;;;;;;4958172;29;20454;-92
2023/02/27 06:07:41;;;;;;;1.23;0.93;;;19.90;55.00;;;;;;4957905;29;20540;-88
2023/02/27 06:10:11;;;;;;;1.10;0.90;;;19.90;55.00;;;;;;4958246;29;20453;-92
2023/02/27 06:12:39;;;;;;;1.20;1.10;;;19.90;55.00;;;;;;4957632;28;20468;-84
2023/02/27 06:15:07;;;;;;;1.23;1.10;;;19.80;54.90;;;;;;4957394;29;20449;-93
2023/02/27 06:17:34;;;;;;;1.10;0.90;;;19.80;54.90;;;;;;4957520;29;20449;-92
2023/02/27 06:20:01;;;;;;;1.43;1.17;;;19.80;54.90;;;;;;4957846;29;20797;-85
2023/02/27 06:22:27;;;;;;;1.10;0.97;;;19.80;54.90;;;;;;4957817;29;20445;-84
2023/02/27 06:24:54;;;;;;;1.10;0.90;;;20.00;55.10;;;;;;4957505;29;20452;-90
2023/02/27 06:27:21;;;;;;;1.20;0.90;;;19.80;54.90;;;;;;4957489;29;20533;-92
2023/02/27 06:29:49;;;;;;;1.10;0.90;;;19.80;54.90;;;;;;4957405;29;20806;-93
2023/02/27 06:32:16;;;;;;;1.10;0.90;;;19.80;54.90;;;;;;4957516;28;20445;-94
2023/02/27 06:34:43;;;;;;;1.20;0.90;;;19.80;54.90;;;;;;4958130;29;20442;-94
2023/02/27 06:37:09;;;;;;;1.00;0.73;;;19.80;54.90;;;;;;4957416;29;20450;-93
2023/02/27 06:39:36;;;;;;;1.10;0.80;;;19.80;55.00;;;;;;4957023;28;20535;-84
2023/02/27 06:42:03;;;;;;;1.10;0.93;;;19.80;54.90;;;;;;4956381;29;20493;-88
2023/02/27 06:44:30;;;;;;;1.93;1.00;;;19.80;54.80;;;;;;4957649;29;20450;-83
2023/02/27 06:46:58;;;;;;;1.10;0.80;;;19.80;54.70;;;;;;4956852;29;20438;-92
2023/02/27 06:49:25;;;;;;;1.13;0.90;;;19.80;54.90;;;;;;4956715;28;20476;-84
2023/02/27 06:51:51;;;;;;;1.60;1.27;;;19.80;55.00;;;;;;4956987;29;20458;-83
2023/02/27 06:54:18;;;;;;;1.90;1.00;;;19.80;54.70;;;;;;4956763;29;20438;-93
2023/02/27 06:56:45;;;;;;;1.40;1.00;;;19.80;55.00;;;;;;4957076;29;20450;-95
2023/02/27 06:59:12;;;;;;;1.20;1.00;;;19.80;55.10;;;;;;4957069;29;20449;-94
2023/02/27 07:01:38;;;;;;;1.40;1.03;;;19.80;55.30;;;;;;4957477;29;20835;-95
2023/02/27 07:04:07;;;;;;;1.20;1.00;;;19.70;55.30;;;;;;4956974;29;20441;-94
2023/02/27 07:06:33;;;;;;;1.13;0.97;;;19.90;55.50;;;;;;4957170;29;20449;-92
2023/02/27 07:09:01;;;;;;;2.20;0.90;;;19.80;55.30;;;;;;4957097;29;20450;-94
2023/02/27 07:11:28;;;;;;;1.97;1.00;;;19.80;55.40;;;;;;4956972;29;20541;-91
2023/02/27 07:13:55;;;;;;;1.17;1.07;;;19.80;55.50;;;;;;4957269;29;20985;-92
2023/02/27 07:16:22;;;;;;;1.67;1.00;;;19.80;55.50;;;;;;4957395;29;20926;-84
2023/02/27 07:18:48;;;;;;;1.30;1.10;;;19.80;55.40;;;;;;4956996;29;20974;-94
2023/02/27 07:21:17;;;;;;;2.30;1.10;;;19.80;55.40;;;;;;4957488;29;20836;-92
2023/02/27 07:23:44;;;;;;;1.30;1.00;;;19.80;55.50;;;;;;4957117;29;20446;-95
2023/02/27 07:26:10;;;;;;;1.20;1.10;;;19.80;55.50;;;;;;4959048;29;20456;-89
2023/02/27 07:28:37;;;;;;;4.40;0.90;;;19.80;55.60;;;;;;4958516;29;20530;-96
2023/02/27 07:31:04;;;;;;;1.80;1.20;;;19.70;55.50;;;;;;4960566;29;20451;-88
2023/02/27 07:33:32;;;;;;;1.20;1.00;;;19.80;55.50;;;;;;4957911;29;20801;-96
2023/02/27 07:35:59;;;;;;;4.33;1.20;;;19.80;55.50;;;;;;4957205;29;20528;-94
2023/02/27 07:38:31;;;;;;;1.10;0.90;;;19.80;55.50;;;;;;4956084;29;20450;-96
2023/02/27 07:40:57;;;;;;;3.30;1.07;;;19.80;55.00;;;;;;4956625;29;20585;-93
2023/02/27 07:43:24;;;;;;;1.53;1.00;;;19.80;55.40;;;;;;4956219;28;20437;-95
2023/02/27 07:45:51;;;;;;;2.23;0.90;;;19.70;55.30;;;;;;4956713;29;20793;-95
2023/02/27 07:48:19;;;;;;;1.80;1.10;;;19.80;55.30;;;;;;4958024;29;20897;-92
2023/02/27 07:50:45;;;;;;;1.33;1.23;;;19.80;55.30;;;;;;4958756;29;20485;-92
2023/02/27 07:53:12;;;;;;;1.20;1.00;;;19.80;55.30;;;;;;4957988;29;20453;-92
2023/02/27 07:55:50;;;;;;;2.37;1.07;;;19.80;55.40;;;;;;4964061;29;20954;-96
2023/02/27 07:58:17;;;;;;;2.17;1.10;;;19.80;55.30;;;;;;4964458;29;20434;-94
2023/02/27 08:00:44;;;;;;;2.13;0.90;;;19.80;55.40;;;;;;4962366;29;20454;-92
2023/02/27 08:03:11;;;;;;;1.40;1.27;;;19.80;55.30;;;;;;4959980;29;20541;-91
2023/02/27 08:05:38;;;;;;;1.30;1.10;;;19.80;55.30;;;;;;4959779;29;20441;-89
2023/02/27 08:08:05;;;;;;;2.07;1.00;;;19.80;55.20;;;;;;4959244;29;20449;-95
2023/02/27 08:10:31;;;;;;;1.20;1.10;;;19.90;55.20;;;;;;4956010;29;20441;-93
2023/02/27 08:12:59;;;;;;;1.43;1.30;;;19.90;55.00;;;;;;4957130;29;20454;-96
2023/02/27 08:15:26;;;;;;;1.50;1.13;;;20.00;55.20;;;;;;4960840;29;20442;-96
2023/02/27 08:17:53;;;;;;;1.30;0.90;;;19.90;55.10;;;;;;4963393;29;20462;-91
2023/02/27 08:20:21;;;;;;;2.13;1.10;;;20.00;55.10;;;;;;4957938;29;20540;-90
2023/02/27 08:22:48;;;;;;;1.20;0.90;;;20.00;55.30;;;;;;4956846;29;20529;-92
2023/02/27 08:25:16;;;;;;;1.30;0.90;;;20.00;55.10;;;;;;4958326;29;20493;-92
2023/02/27 08:30:25;;;;;;;1.30;1.07;;;20.10;54.70;;;;;;4960265;29;20434;-90
2023/02/27 08:32:52;;;;;;;1.30;1.17;;;20.10;54.30;;;;;;4970327;28;20548;-89
2023/02/27 08:35:19;;;;;;;1.40;1.30;;;20.20;54.10;;;;;;4987127;23;20441;-93
2023/02/27 08:37:49;;;;;;;1.90;1.20;;;20.20;53.80;;;;;;5010412;28;20468;-93
2023/02/27 08:40:16;;;;;;;1.87;1.27;;;20.30;54.30;;;;;;4997288;28;20455;-94
2023/02/27 08:42:50;;;;;;;1.20;1.07;;;20.30;54.40;;;;;;4996519;28;20491;-96
2023/02/27 08:45:17;;;;;;;1.30;1.00;;;20.40;54.40;;;;;;4978435;28;20436;-96
2023/02/27 08:47:45;;;;;;;1.80;1.37;;;20.50;54.40;;;;;;4978760;28;20459;-92
2023/02/27 08:50:12;;;;;;;1.40;1.17;;;20.70;54.20;;;;;;4975462;28;20437;-96
2023/02/27 08:52:39;;;;;;;1.27;1.07;;;20.90;54.00;;;;;;4975331;28;20964;-92
2023/02/27 08:55:07;;;;;;;1.20;0.90;;;21.10;53.80;;;;;;4976622;28;20445;-91
2023/02/27 08:57:34;;;;;;;2.33;1.00;;;21.30;53.70;;;;;;4978822;28;20966;-89
2023/02/27 09:00:01;;;;;;;1.10;0.90;;;21.50;53.50;;;;;;4978553;28;20540;-92
2023/02/27 09:02:27;;;;;;;2.83;1.00;;;21.80;53.40;;;;;;4978449;28;20999;-92
2023/02/27 09:04:56;;;;;;;1.60;1.03;;;21.90;53.20;;;;;;4978259;28;20810;-89
2023/02/27 09:07:22;;;;;;;1.83;1.17;;;22.00;52.90;;;;;;4978284;28;20454;-88
2023/02/27 09:09:49;;;;;;;1.23;1.10;;;22.20;52.70;;;;;;4978275;28;20445;-89
2023/02/27 09:12:16;;;;;;;2.23;1.30;;;22.50;52.50;;;;;;4978114;28;20465;-87
2023/02/27 09:14:43;;;;;;;1.83;1.30;;;22.70;52.30;;;;;;4978069;28;20445;-86
2023/02/27 09:17:10;;;;;;;1.30;1.20;;;23.00;52.20;;;;;;4978393;28;20444;-88
2023/02/27 09:19:36;;;;;;;1.23;1.03;;;23.10;51.90;;;;;;4978113;28;20532;-88
2023/02/27 09:22:05;;;;;;;2.13;1.40;;;23.30;51.70;;;;;;4978345;28;20573;-88
2023/02/27 09:24:31;;;;;;;1.20;1.07;;;23.40;51.50;;;;;;4978413;28;20452;-89
2023/02/27 09:26:58;;;;;;;1.20;1.00;;;23.60;51.30;;;;;;4978214;28;20457;-92
2023/02/27 09:29:43;;;;;;;1.30;1.10;;;23.90;51.30;;;;;;4979664;28;20829;-93
2023/02/27 09:32:10;;;;;;;1.93;0.90;;;23.90;51.10;;;;;;4977520;28;20577;-87
2023/02/27 09:34:37;;;;;;;1.50;1.40;;;23.90;51.00;;;;;;4996423;28;20453;-89
2023/02/27 09:37:06;;;;;;;1.10;0.90;;;24.00;51.30;;;;;;4994082;28;20491;-90
2023/02/27 09:39:32;;;;;;;1.20;1.03;;;23.70;52.00;;;;;;4995877;28;20456;-92
2023/02/27 09:42:18;;;;;;;1.33;1.10;;;23.50;51.70;;;;;;4997067;28;20505;-89
2023/02/27 09:44:47;;;;;;;1.40;1.20;;;23.30;51.80;;;;;;4997745;28;20448;-88
2023/02/27 09:47:24;;;;;;;1.37;1.13;;;23.30;50.60;;;;;;4997515;28;20450;-87
2023/02/27 09:50:00;;;;;;;1.53;1.10;;;23.40;51.60;;;;;;4997877;28;20443;-88
2023/02/27 09:52:32;;;;;;;1.37;1.10;;;23.70;51.60;;;;;;4997891;28;20451;-89
2023/02/27 09:54:59;;;;;;;1.67;1.10;;;23.90;51.30;;;;;;4998482;28;20499;-92
2023/02/27 09:57:46;;;;;;;1.40;0.97;;;24.30;51.10;;;;;;5000449;28;20536;-90
2023/02/27 10:00:35;;;;;;;2.20;1.20;;;24.60;50.70;;;;;;4998249;28;20454;-96
2023/02/27 10:03:16;;;;;;;2.00;1.10;;;24.80;50.40;;;;;;4997631;28;20557;-93
2023/02/27 10:05:51;;;;;;;1.30;1.17;;;25.00;50.40;;;;;;4998667;28;20516;-93
2023/02/27 10:08:26;;;;;;;2.03;1.27;;;25.10;50.20;;;;;;4998426;28;20537;-87
2023/02/27 10:11:00;;;;;;;1.37;1.10;;;25.20;50.20;;;;;;4993085;28;20956;-88
2023/02/27 10:13:49;;;;;;;1.77;1.10;;;25.40;50.20;;;;;;4984435;28;20472;-89
2023/02/27 10:16:19;;;;;;;1.30;1.00;;;25.20;50.30;;;;;;4995935;28;20456;-90
2023/02/27 10:18:53;;;;;;;1.20;1.10;;;25.20;51.00;;;;;;4997212;28;20446;-92
2023/02/27 10:21:24;;;;;;;1.70;0.90;;;25.00;50.60;;;;;;4997427;28;20442;-91
2023/02/27 10:23:57;;;;;;;1.87;1.40;;;24.90;50.90;;;;;;4996107;28;20442;-88
2023/02/27 10:26:28;;;;;;;1.40;1.10;;;24.80;51.20;;;;;;4981426;28;20459;-87
2023/02/27 10:28:56;;;;;;;1.50;1.13;;;24.60;51.30;;;;;;4996622;28;20446;-88
2023/02/27 10:31:25;;;;;;;1.13;0.80;;;24.50;51.50;;;;;;4996646;28;20442;-87
2023/02/27 10:33:53;;;;;;;1.50;1.10;;;24.50;51.80;;;;;;4996948;28;20442;-85
2023/02/27 10:36:21;;;;;;;1.13;0.87;;;24.30;51.90;;;;;;4997064;28;20488;-90
2023/02/27 10:38:52;;;;;;;2.60;1.20;;;24.20;52.10;;;;;;4996274;28;20805;-88
2023/02/27 10:41:21;;;;;;;1.63;1.20;;;24.10;52.30;;;;;;4996299;28;20470;-90
2023/02/27 10:43:48;;;;;;;1.20;0.90;;;24.20;52.40;;;;;;4997088;28;20454;-91
2023/02/27 10:46:20;;;;;;;1.23;0.90;;;24.10;52.40;;;;;;4997336;28;20999;-90
2023/02/27 10:48:46;;;;;;;2.10;1.07;;;24.10;52.50;;;;;;4997673;28;20445;-90
2023/02/27 10:51:23;;;;;;;1.20;1.00;;;24.10;52.60;;;;;;4996412;28;20786;-85
2023/02/27 10:54:24;;;;;;;1.20;1.00;;;24.00;52.60;;;;;;4996339;28;20486;-90
2023/02/27 10:56:53;;;;;;;3.10;1.03;;;24.00;52.80;;;;;;4995871;28;20517;-91
2023/02/27 10:59:22;;;;;;;1.13;1.00;;;23.80;52.80;;;;;;4995896;28;20451;-89
2023/02/27 11:01:52;;;;;;;1.60;0.90;;;23.70;52.90;;;;;;4996052;28;20482;-91
2023/02/27 11:04:34;;;;;;;1.10;0.90;;;23.60;53.50;;;;;;4995904;28;20800;-87
2023/02/27 11:07:04;;;;;;;1.20;1.00;;;23.50;53.00;;;;;;4996559;28;20447;-92
2023/02/27 11:09:34;;;;;;;1.30;0.83;;;23.50;53.10;;;;;;4996088;28;20537;-87
2023/02/27 11:12:12;;;;;;;2.50;1.10;;;23.30;53.10;;;;;;4996114;28;20466;-88
2023/02/27 11:14:49;;;;;;;1.33;1.00;;;23.30;53.20;;;;;;4996541;28;20499;-89
2023/02/27 11:17:23;;;;;;;1.50;1.00;;;23.30;53.30;;;;;;4995152;28;20520;-88
2023/02/27 11:19:50;;;;;;;1.20;0.80;;;23.20;53.20;;;;;;4995774;28;20444;-87
2023/02/27 11:22:19;;;;;;;1.10;1.00;;;23.10;53.20;;;;;;4986291;28;21106;-88
2023/02/27 11:24:48;;;;;;;1.20;1.00;;;23.10;53.30;;;;;;4993886;28;20452;-86
2023/02/27 11:27:22;;;;;;;1.20;0.90;;;23.10;53.40;;;;;;4995847;28;20801;-90
2023/02/27 11:29:59;;;;;;;1.80;0.70;;;23.00;53.40;;;;;;4995716;28;20557;-90
2023/02/27 11:32:31;;;;;;;2.27;0.90;;;22.90;53.50;;;;;;4995702;28;20441;-87
2023/02/27 11:34:59;;;;;;;1.00;0.80;;;22.90;53.50;;;;;;4995652;28;20440;-88
2023/02/27 11:37:32;;;;;;;2.17;1.33;;;22.80;53.50;;;;;;4995645;28;20479;-90
2023/02/27 11:40:12;;;;;;;1.20;0.70;;;22.80;53.50;;;;;;4995305;28;20451;-88
2023/02/27 11:42:48;;;;;;;1.30;1.10;;;22.90;53.70;;;;;;4995621;28;20846;-88
2023/02/27 11:45:28;;;;;;;1.03;0.90;;;22.90;53.70;;;;;;4995493;28;20548;-88
2023/02/27 11:48:00;;;;;;;1.30;1.10;;;22.80;53.70;;;;;;4995506;28;20790;-89
2023/02/27 11:50:54;;;;;;;1.20;0.90;;;22.80;53.80;;;;;;4995182;28;20788;-88
2023/02/27 11:53:38;;;;;;;1.30;1.20;;;22.80;53.80;;;;;;4995587;28;20928;-90
2023/02/27 11:56:12;;;;;;;1.73;1.00;;;22.80;53.90;;;;;;4996611;28;20771;-92
2023/02/27 11:58:44;;;;;;;1.20;0.87;;;22.90;53.90;;;;;;4997178;28;20442;-91
2023/02/27 12:01:21;;;;;;;1.27;1.03;;;22.80;53.90;;;;;;5007675;28;20429;-88
2023/02/27 12:03:55;;;;;;;1.83;0.90;;;22.90;53.90;;;;;;5019160;28;20510;-90
2023/02/27 12:06:26;;;;;;;1.70;1.27;;;22.90;53.80;;;;;;5002968;28;20858;-89
2023/02/27 12:08:57;;;;;;;1.50;1.07;;;22.90;53.90;;;;;;4995677;28;20449;-89
2023/02/27 12:11:28;;;;;;;1.10;0.90;;;23.00;54.00;;;;;;4995189;28;20461;-90
2023/02/27 12:14:00;;;;;;;4.03;1.10;;;22.90;53.70;;;;;;4995301;28;20455;-90
2023/02/27 12:16:34;;;;;;;1.00;0.80;;;22.90;53.80;;;;;;4995601;28;20791;-93
2023/02/27 12:19:10;;;;;;;1.60;0.90;;;22.90;53.90;;;;;;4994838;28;20524;-89
2023/02/27 12:21:41;;;;;;;1.20;1.10;;;22.90;54.00;;;;;;4995452;28;20924;-89
2023/02/27 12:24:14;;;;;;;1.00;0.77;;;22.90;53.90;;;;;;4995015;28;20475;-89
2023/02/27 12:26:44;;;;;;;2.60;0.93;;;22.80;53.90;;;;;;4996639;28;20439;-88
2023/02/27 12:29:19;;;;;;;1.00;0.70;;;22.90;54.00;;;;;;4996066;28;20440;-87
2023/02/27 12:31:51;;;;;;;1.40;0.90;;;22.80;54.00;;;;;;4996462;28;20448;-87
2023/02/27 12:34:28;;;;;;;1.30;0.80;;;22.80;54.00;;;;;;4995424;28;20448;-88
2023/02/27 12:37:00;;;;;;;2.13;1.20;;;22.80;54.10;;;;;;4994461;28;20862;-96
2023/02/27 12:39:28;;;;;;;1.00;0.70;;;22.80;54.10;;;;;;4994440;28;20454;-88
2023/02/27 12:42:20;;;;;;;1.20;0.87;;;22.70;54.10;;;;;;4994190;28;20465;-91
2023/02/27 12:45:05;;;;;;;1.10;0.87;;;22.70;54.10;;;;;;4994726;28;20448;-91
2023/02/27 12:47:41;;;;;;;1.00;0.90;;;22.80;54.10;;;;;;4994627;28;20487;-88
2023/02/27 12:50:15;;;;;;;1.20;0.90;;;22.80;54.10;;;;;;4995535;28;20431;-85
2023/02/27 12:52:57;;;;;;;1.00;0.80;;;22.70;54.10;;;;;;4994960;28;20440;-86
2023/02/27 12:55:28;;;;;;;1.20;0.93;;;22.70;54.20;;;;;;5015590;28;20448;-84
2023/02/27 12:58:16;;;;;;;3.63;1.30;;;22.70;54.20;;;;;;5016604;28;20444;-83
2023/02/27 13:00:47;;;;;;;3.40;1.20;;;22.60;54.10;;;;;;5011054;28;20551;-84
2023/02/27 13:03:20;;;;;;;1.63;1.00;;;22.60;54.30;;;;;;4996973;28;20502;-85
2023/02/27 13:05:57;;;;;;;5.20;1.30;;;22.60;54.20;;;;;;4997036;28;20784;-85
2023/02/27 13:08:48;;;;;;;4.47;1.17;;;22.60;54.30;;;;;;4995244;28;20950;-86
2023/02/27 13:11:24;;;;;;;4.33;1.23;;;22.60;54.30;;;;;;4994569;28;20464;-87
2023/02/27 13:13:56;;;;;;;11.83;1.80;;;22.60;54.40;;;;;;4994369;28;20433;-92